< < Back
Terminal Aerodrome Forecast


Current Version              Previous Versions:   1  2  3  4  5  6  7  8  9  

Terminal Aerodrome Forecast

054
FTUS42 KILM 171700
TAFFLO
TAF
KFLO 171722Z 1718/1818 02010KT P6SM SCT040
     FM180400 04008KT P6SM SCT025 BKN050
     FM181000 04010KT P6SM SCT006 SCT025 BKN045
     FM181300 05012KT P6SM BKN035 BKN080=

Latest METAR

342
SAUS70 KWBC 181500 RRL
MTRFLO
METAR KFLO 181453Z 04011KT 10SM BKN060 OVC070 13/04 A3036 RMK AO2 SLP280
T01330044 50005


USA.gov is the U.S. government's official web portal to all federal, state and local government web resources and services.